PDT,Max TemperatureF,Mean TemperatureF,Min TemperatureF,Max Dew PointF,MeanDew PointF,Min DewpointF,Max Humidity, Mean Humidity, Min Humidity, Max Sea Level PressureIn, Mean Sea Level PressureIn, Min Sea Level PressureIn, Max VisibilityMiles, Mean VisibilityMiles, Min VisibilityMiles, Max Wind SpeedMPH, Mean Wind SpeedMPH, Max Gust SpeedMPH,PrecipitationIn, CloudCover, Events, WindDirDegrees
2013-7-1,75,68,61,72,67,61,100,90,79,30.09,30.02,29.99,10,9,3,21,11,24,0.00,5,,14
2013-7-2,75,68,61,70,66,61,100,90,73,30.12,30.09,30.07,10,8,3,25,15,33,0.00,6,,23
2013-7-3,75,68,61,68,64,57,100,83,64,30.15,30.12,30.10,10,10,6,31,17,39,0.00,2,,22
2013-7-4,75,69,63,64,61,54,93,81,64,30.15,30.12,30.07,10,10,8,32,18,39,0.00,0,,26
2013-7-5,73,64,54,64,60,52,93,80,64,30.08,30.04,29.98,10,10,10,30,17,38,0.00,1,,22
2013-7-6,75,64,52,64,57,52,93,80,64,30.00,29.95,29.91,10,10,7,30,17,38,0.00,2,,25
2013-7-7,70,64,57,66,57,55,93,83,73,30.03,29.98,29.96,10,10,8,27,17,36,0.00,6,,22
2013-7-8,75,66,57,66,62,55,100,82,64,30.07,30.04,30.02,10,10,9,29,16,39,0.00,0,,20
2013-7-9,72,64,55,66,63,55,100,93,78,30.12,30.08,30.06,10,6,0,27,13,36,0.00,6,,16
2013-7-10,72,63,54,66,59,52,100,84,66,30.12,30.07,30.02,10,10,4,29,18,38,0.00,3,,21
2013-7-11,75,62,48,61,54,46,100,78,57,30.08,30.05,30.01,10,10,10,29,13,39,0.00,0,,2
2013-7-12,,,,,,,,,,30.11,30.07,30.04,10,10,8,21,11,28,0.00,0,,360
2013-7-13,,,,,,,,,,30.12,30.08,30.04,10,10,6,29,15,38,0.00,0,,359
2013-7-14,,,,,,,,,,30.09,30.06,30.00,10,8,0,30,15,41,0.00,3,,358
2013-7-15,,,,,,,,,,30.03,29.93,29.84,10,9,0,27,14,35,0.00,2,,358
2013-7-16,,,,,,,,,,30.08,29.93,29.85,10,9,3,14,6,17,0.00,7,,251
2013-7-17,,,,,,,,,,30.21,30.16,30.09,10,10,9,17,5,20,0.00,5,,336
2013-7-18,64,58,53,54,52,52,93,76,63,30.21,30.18,30.15,10,9,0,29,12,39,0.00,3,,354
2013-7-19,63,59,54,54,53,52,93,83,67,30.18,30.14,30.10,10,10,10,30,18,41,0.00,5,,360
2013-7-20,64,59,54,54,53,52,100,85,67,30.13,30.06,29.99,10,10,4,31,20,41,0.00,6,,3
2013-7-21,64,58,52,55,54,50,100,87,72,30.02,29.96,29.92,10,10,5,29,16,38,0.00,5,,357
2013-7-22,64,58,52,55,53,50,100,87,72,30.03,30.00,29.97,10,8,2,28,15,35,0.00,5,,355
2013-7-23,59,54,48,54,51,48,100,93,75,30.10,30.04,30.01,10,5,0,23,10,30,0.00,6,,341
2013-7-24,57,54,50,52,51,48,100,94,80,30.10,30.06,30.03,10,7,1,23,13,30,0.00,6,,356
2013-7-25,61,55,48,52,50,46,100,88,72,30.09,30.06,30.02,10,7,0,29,15,40,0.00,4,,354
2013-7-26,63,56,48,52,51,46,100,86,67,30.19,30.14,30.07,10,8,0,32,17,40,0.00,3,,357
2013-7-27,64,56,48,54,52,46,100,84,67,30.19,30.14,30.07,10,10,7,32,17,41,0.00,1,,2
2013-7-28,64,59,54,54,52,50,93,81,67,30.09,30.05,30.00,10,10,10,24,14,32,0.00,2,,1
2013-7-29,66,57,48,54,52,48,100,83,63,30.11,30.03,30.00,10,9,0,18,8,25,0.00,3,,342
2013-7-30,64,60,55,55,54,54,93,82,67,30.18,30.16,30.11,10,10,10,12,5,,0.00,8,,342
2013-7-31,60,58,55,55,55,54,100,91,87,30.17,30.14,30.13,10,7,2,7,3,,0.00,8,,302